Time;durP1;ratioP1;P1;durP2;ratioP2;P2;SDS_P1;SDS_P2;PMS_P1;PMS_P2;Temp;Humidity;BMP_temperature;BMP_pressure;BME280_temperature;BME280_humidity;BME280_pressure;Samples;Min_cycle;Max_cycle;Signal;HPM_P1;HPM_P2
2022/10/24 00:02:11;;;;;;;23.60;15.70;;;;;;;10.32;85.44;100170.83;126887;1278;107507;-75
2022/10/24 00:05:16;;;;;;;19.20;13.60;;;;;;;10.30;85.54;100172.24;126852;1279;107716;-75
2022/10/24 00:08:22;;;;;;;20.20;13.90;;;;;;;10.28;85.72;100178.43;126991;1280;107445;-77
2022/10/24 00:11:28;;;;;;;18.80;13.90;;;;;;;10.28;85.34;100180.92;126990;1278;106530;-75
2022/10/24 00:14:35;;;;;;;22.10;15.80;;;;;;;10.28;85.45;100177.86;126899;1271;107488;-76
2022/10/24 00:17:40;;;;;;;21.40;14.60;;;;;;;10.29;85.40;100178.30;126901;1279;107713;-75
2022/10/24 00:20:46;;;;;;;23.50;16.70;;;;;;;10.29;85.44;100184.54;126920;1278;107457;-75
2022/10/24 00:23:51;;;;;;;22.00;16.30;;;;;;;10.25;85.40;100183.17;126800;1279;107498;-75
2022/10/24 00:26:57;;;;;;;20.40;14.70;;;;;;;10.19;85.41;100184.44;126852;1286;106485;-76
2022/10/24 00:30:02;;;;;;;19.80;13.30;;;;;;;10.16;86.07;100178.05;126874;1278;107506;-76
2022/10/24 00:33:08;;;;;;;22.60;15.00;;;;;;;10.14;85.64;100169.17;126886;1271;107559;-75
2022/10/24 00:36:16;;;;;;;22.30;15.10;;;;;;;10.13;86.08;100163.00;126917;1273;107495;-76
2022/10/24 00:39:21;;;;;;;22.10;15.10;;;;;;;10.14;85.93;100168.05;126887;1279;108053;-75
2022/10/24 00:42:27;;;;;;;18.00;14.10;;;;;;;10.12;85.98;100170.76;126881;1285;107498;-76
2022/10/24 00:45:43;;;;;;;20.20;14.70;;;;;;;10.10;86.11;100168.86;126869;1286;107477;-75
2022/10/24 00:48:53;;;;;;;20.60;13.30;;;;;;;10.07;86.25;100161.30;126934;1286;107498;-77
2022/10/24 00:52:03;;;;;;;23.10;13.50;;;;;;;10.08;86.79;100172.74;126912;1279;107380;-76
2022/10/24 00:55:10;;;;;;;16.30;12.70;;;;;;;10.11;86.86;100177.83;126923;1286;107502;-77
2022/10/24 00:58:18;;;;;;;17.20;13.30;;;;;;;10.11;86.45;100168.04;126840;1286;107574;-76
2022/10/24 01:01:24;;;;;;;20.80;14.50;;;;;;;10.13;86.70;100166.77;126923;1286;106053;-76
2022/10/24 01:04:29;;;;;;;19.20;14.40;;;;;;;10.14;86.44;100159.91;126913;1272;105416;-76
2022/10/24 01:07:50;;;;;;;22.20;15.00;;;;;;;10.12;86.08;100160.96;126888;1279;107247;-76
2022/10/24 01:11:06;;;;;;;16.90;12.20;;;;;;;10.08;86.47;100161.21;126965;1278;107603;-77
2022/10/24 01:14:32;;;;;;;17.80;12.40;;;;;;;10.03;86.30;100149.94;127062;1279;107403;-75
2022/10/24 01:17:43;;;;;;;18.80;14.00;;;;;;;10.02;86.74;100143.45;126854;1279;105640;-75
2022/10/24 01:21:09;;;;;;;18.20;13.50;;;;;;;10.06;86.64;100141.73;126895;1286;107647;-77
2022/10/24 01:24:38;;;;;;;14.80;12.50;;;;;;;10.06;86.77;100143.13;126988;1272;107281;-76
2022/10/24 01:28:08;;;;;;;19.10;13.10;;;;;;;10.03;86.65;100135.95;126950;1278;107308;-77
2022/10/24 01:31:23;;;;;;;20.40;14.50;;;;;;;10.01;86.34;100129.39;126893;1278;107530;-76
2022/10/24 01:34:36;;;;;;;18.60;12.60;;;;;;;9.96;86.74;100120.25;126896;1278;107504;-76
2022/10/24 01:37:47;;;;;;;19.30;12.70;;;;;;;9.95;86.83;100116.08;126820;1284;107508;-75
2022/10/24 01:40:57;;;;;;;23.10;15.00;;;;;;;9.98;87.09;100112.94;126947;1286;107517;-75
2022/10/24 01:44:06;;;;;;;19.40;14.00;;;;;;;10.03;87.24;100102.52;126893;1286;107459;-76
2022/10/24 01:47:16;;;;;;;21.50;15.00;;;;;;;10.09;87.29;100095.20;126936;1272;107615;-75
2022/10/24 01:50:24;;;;;;;18.90;14.40;;;;;;;10.10;87.07;100090.21;126886;1286;107320;-76
2022/10/24 01:53:31;;;;;;;19.70;13.50;;;;;;;10.09;87.37;100081.97;126946;1285;107528;-77
2022/10/24 01:56:36;;;;;;;19.70;13.40;;;;;;;10.09;87.26;100082.52;126915;1279;107637;-76
2022/10/24 01:59:45;;;;;;;16.80;13.60;;;;;;;10.12;87.54;100087.63;126919;1286;107540;-76
2022/10/24 02:02:55;;;;;;;24.80;14.80;;;;;;;10.13;87.33;100088.88;126970;1279;107365;-76
2022/10/24 02:06:07;;;;;;;18.30;14.50;;;;;;;10.14;87.16;100092.04;126937;1279;107645;-78
2022/10/24 02:09:17;;;;;;;19.70;15.00;;;;;;;10.12;87.15;100089.67;126899;1285;107287;-75
2022/10/24 02:12:25;;;;;;;22.90;15.60;;;;;;;10.12;87.19;100086.47;126926;1279;107260;-73
2022/10/24 02:15:34;;;;;;;19.90;13.50;;;;;;;10.09;87.08;100082.91;126965;1286;107361;-74
2022/10/24 02:18:41;;;;;;;17.80;13.10;;;;;;;10.09;87.23;100078.98;126977;1286;107659;-74
2022/10/24 02:22:01;;;;;;;22.00;16.10;;;;;;;10.10;87.48;100075.92;126938;1286;108588;-74
2022/10/24 02:25:11;;;;;;;21.30;16.20;;;;;;;10.11;87.56;100072.73;126923;1279;106380;-77
2022/10/24 02:28:19;;;;;;;21.60;16.20;;;;;;;10.15;87.58;100074.80;127012;1272;107529;-75
2022/10/24 02:31:31;;;;;;;23.30;16.90;;;;;;;10.17;87.61;100078.67;126917;1285;107252;-75
2022/10/24 02:34:38;;;;;;;22.10;14.10;;;;;;;10.16;87.58;100073.45;126949;1278;108057;-76
2022/10/24 02:37:46;;;;;;;21.80;13.50;;;;;;;10.17;87.87;100066.27;126958;1280;109186;-79
2022/10/24 02:40:54;;;;;;;23.70;16.90;;;;;;;10.19;87.69;100069.60;126938;1278;106621;-75
2022/10/24 02:44:02;;;;;;;24.00;17.00;;;;;;;10.23;87.66;100061.52;127095;1279;107201;-77
2022/10/24 02:47:11;;;;;;;24.40;16.80;;;;;;;10.26;87.77;100051.90;127073;1279;107369;-73
2022/10/24 02:50:16;;;;;;;21.90;16.10;;;;;;;10.27;88.07;100047.67;126921;1278;106093;-75
2022/10/24 02:53:24;;;;;;;20.80;14.70;;;;;;;10.25;87.91;100045.92;126905;1286;107976;-74
2022/10/24 02:56:31;;;;;;;21.30;15.10;;;;;;;10.23;88.38;100040.56;127016;1272;107468;-77
2022/10/24 02:59:36;;;;;;;26.30;18.40;;;;;;;10.24;88.13;100033.38;127087;1279;107429;-76
2022/10/24 03:02:42;;;;;;;24.40;16.50;;;;;;;10.26;88.47;100027.00;126858;1278;107342;-77
2022/10/24 03:05:47;;;;;;;25.70;18.20;;;;;;;10.30;88.36;100031.95;127211;1278;106585;-76
2022/10/24 03:08:52;;;;;;;25.60;17.80;;;;;;;10.33;88.49;100024.55;126851;1286;107485;-76
2022/10/24 03:11:58;;;;;;;20.40;15.10;;;;;;;10.33;88.84;100018.41;126889;1285;107272;-76
2022/10/24 03:15:04;;;;;;;22.40;15.50;;;;;;;10.36;88.49;100011.04;126866;1279;107539;-76
2022/10/24 03:18:09;;;;;;;22.60;17.10;;;;;;;10.39;88.58;100008.08;126851;1279;107214;-76
2022/10/24 03:21:15;;;;;;;22.80;17.30;;;;;;;10.44;88.50;100003.67;126882;1279;107431;-76
2022/10/24 03:24:20;;;;;;;20.80;15.90;;;;;;;10.49;88.85;100001.73;126861;1286;107532;-76
2022/10/24 03:27:25;;;;;;;22.70;17.00;;;;;;;10.53;88.68;100000.42;127097;1286;107339;-76
2022/10/24 03:30:31;;;;;;;22.60;16.00;;;;;;;10.54;88.93;100000.63;126913;1278;107377;-76
2022/10/24 03:33:36;;;;;;;24.60;15.20;;;;;;;10.57;89.16;99990.60;126914;1279;107614;-76
2022/10/24 03:36:42;;;;;;;22.30;16.10;;;;;;;10.61;89.30;99996.77;126980;1278;107494;-78
2022/10/24 03:39:48;;;;;;;23.60;16.60;;;;;;;10.65;89.12;99995.94;127095;1286;107546;-77
2022/10/24 03:42:53;;;;;;;24.00;17.20;;;;;;;10.69;89.24;100002.48;126940;1275;105403;-76
2022/10/24 03:45:58;;;;;;;21.50;15.90;;;;;;;10.73;89.34;100003.67;126949;1278;106597;-77
2022/10/24 03:49:04;;;;;;;22.00;15.20;;;;;;;10.73;89.31;100004.01;126884;1279;107402;-76
2022/10/24 03:52:09;;;;;;;19.10;13.60;;;;;;;10.75;89.68;100004.52;126861;1279;107430;-77
2022/10/24 03:55:15;;;;;;;21.90;15.20;;;;;;;10.78;89.93;99988.48;126920;1272;107293;-77
2022/10/24 03:58:20;;;;;;;27.20;17.40;;;;;;;10.84;89.84;99979.77;126938;1279;106432;-76
2022/10/24 04:01:25;;;;;;;22.60;16.50;;;;;;;10.89;89.94;99976.61;126896;1279;105582;-77
2022/10/24 04:04:31;;;;;;;22.40;16.90;;;;;;;10.92;89.81;99970.70;126916;1286;107115;-76
2022/10/24 04:07:36;;;;;;;19.00;14.70;;;;;;;10.93;89.87;99956.35;126850;1286;107532;-76
2022/10/24 04:10:42;;;;;;;21.40;13.60;;;;;;;10.95;90.16;99943.39;126851;1285;105492;-76
2022/10/24 04:13:47;;;;;;;21.00;14.90;;;;;;;10.98;89.82;99939.11;126879;1279;107522;-77
2022/10/24 04:16:52;;;;;;;22.80;16.30;;;;;;;11.02;90.15;99935.01;127012;1286;107480;-76
2022/10/24 04:19:58;;;;;;;21.50;16.40;;;;;;;11.06;90.17;99920.63;126964;1286;107252;-77
2022/10/24 04:23:04;;;;;;;26.10;17.10;;;;;;;11.09;89.98;99909.86;127052;1284;107245;-78
2022/10/24 04:26:13;;;;;;;23.70;15.30;;;;;;;11.08;89.93;99902.31;126898;1278;109053;-77
2022/10/24 04:29:19;;;;;;;18.90;13.60;;;;;;;11.07;90.33;99895.40;127058;1285;109236;-77
2022/10/24 04:32:24;;;;;;;19.70;15.10;;;;;;;11.09;90.36;99899.14;127252;1279;107538;-77
2022/10/24 04:35:30;;;;;;;19.90;14.70;;;;;;;11.13;90.24;99893.01;127052;1278;107378;-77
2022/10/24 04:38:35;;;;;;;19.60;16.00;;;;;;;11.17;90.20;99896.52;126816;1286;107562;-78
2022/10/24 04:41:41;;;;;;;21.30;15.20;;;;;;;11.18;90.28;99907.06;126941;1285;107378;-77
2022/10/24 04:44:46;;;;;;;21.80;14.80;;;;;;;11.18;90.58;99911.50;126808;1279;107470;-77
2022/10/24 04:47:51;;;;;;;21.10;13.60;;;;;;;11.19;90.46;99910.70;126862;1280;107551;-78
2022/10/24 04:50:57;;;;;;;19.20;14.50;;;;;;;11.23;90.54;99913.02;127132;1279;107125;-77
2022/10/24 04:54:02;;;;;;;19.00;14.40;;;;;;;11.26;90.70;99909.41;127083;1279;107357;-77
2022/10/24 04:57:08;;;;;;;19.40;14.50;;;;;;;11.29;90.88;99909.27;127145;1279;107473;-77
2022/10/24 05:00:15;;;;;;;22.40;15.10;;;;;;;11.31;90.64;99911.02;127095;1286;107477;-78
2022/10/24 05:03:22;;;;;;;17.80;13.30;;;;;;;11.31;90.99;99908.14;126823;1279;107550;-78
2022/10/24 05:06:27;;;;;;;20.80;14.70;;;;;;;11.35;90.83;99910.77;127032;1278;107890;-76
2022/10/24 05:09:33;;;;;;;22.00;14.20;;;;;;;11.39;90.90;99916.05;126917;1286;107494;-79
2022/10/24 05:12:38;;;;;;;18.60;14.90;;;;;;;11.42;90.92;99930.84;126840;1286;107288;-75
2022/10/24 05:15:44;;;;;;;18.80;14.70;;;;;;;11.44;90.77;99941.63;126840;1275;107526;-76
2022/10/24 05:18:49;;;;;;;16.70;12.80;;;;;;;11.46;90.78;99939.16;126822;1286;107246;-75
2022/10/24 05:21:55;;;;;;;57.60;35.50;;;;;;;11.47;90.85;99933.55;126853;1278;107409;-75
2022/10/24 05:25:00;;;;;;;24.40;17.60;;;;;;;11.48;90.82;99934.46;126887;1286;107393;-75
2022/10/24 05:28:06;;;;;;;21.30;14.70;;;;;;;11.51;91.09;99933.23;126863;1278;107471;-75
2022/10/24 05:31:11;;;;;;;18.90;14.10;;;;;;;11.55;91.04;99939.39;126896;1279;107518;-75
2022/10/24 05:34:16;;;;;;;18.00;13.30;;;;;;;11.58;90.90;99931.63;126840;1279;107501;-75
2022/10/24 05:37:23;;;;;;;18.70;12.30;;;;;;;11.58;91.00;99933.35;126878;1285;107286;-74
2022/10/24 05:40:28;;;;;;;18.60;12.70;;;;;;;11.61;91.30;99919.89;126972;1285;107589;-76
2022/10/24 05:43:33;;;;;;;18.30;13.40;;;;;;;11.62;91.06;99910.63;126876;1278;106522;-78
2022/10/24 05:46:39;;;;;;;17.50;14.00;;;;;;;11.66;91.09;99914.17;126897;1288;107524;-79
2022/10/24 05:49:45;;;;;;;17.50;12.90;;;;;;;11.67;90.86;99922.09;126932;1279;107420;-80
2022/10/24 05:52:50;;;;;;;19.30;13.50;;;;;;;11.67;91.01;99922.58;126825;1280;107139;-79
2022/10/24 05:55:56;;;;;;;20.30;14.40;;;;;;;11.67;91.11;99914.91;126958;1279;107650;-79
2022/10/24 05:59:02;;;;;;;18.40;14.50;;;;;;;11.68;91.32;99900.17;126861;1286;107500;-79
2022/10/24 06:02:10;;;;;;;20.00;15.20;;;;;;;11.70;91.02;99894.13;126993;1279;107347;-79
2022/10/24 06:05:16;;;;;;;23.60;14.30;;;;;;;11.70;91.17;99891.29;126844;1287;105621;-79
2022/10/24 06:08:21;;;;;;;19.80;13.10;;;;;;;11.69;91.21;99900.61;126835;1280;107539;-79
2022/10/24 06:11:27;;;;;;;18.30;13.50;;;;;;;11.70;91.33;99921.27;126820;1295;107662;-79
2022/10/24 06:14:32;;;;;;;20.60;14.70;;;;;;;11.72;91.23;99913.00;126899;1286;107323;-79
2022/10/24 06:17:37;;;;;;;18.60;13.20;;;;;;;11.74;91.18;99915.61;129106;1280;107155;-79
2022/10/24 06:20:43;;;;;;;18.90;13.30;;;;;;;11.74;91.27;99925.00;126854;1280;107471;-78
2022/10/24 06:23:48;;;;;;;18.40;12.70;;;;;;;11.76;91.42;99936.55;126931;1278;107539;-78
2022/10/24 06:26:54;;;;;;;16.70;12.60;;;;;;;11.80;91.33;99939.77;126902;1295;107575;-78
2022/10/24 06:29:59;;;;;;;19.10;13.60;;;;;;;11.83;91.56;99948.11;126924;1279;107475;-79
2022/10/24 06:33:04;;;;;;;17.50;13.40;;;;;;;11.87;91.54;99950.54;127016;1285;107566;-79
2022/10/24 06:36:13;;;;;;;19.50;12.30;;;;;;;11.90;91.34;99949.17;126858;1296;106667;-78
2022/10/24 06:39:18;;;;;;;17.30;11.80;;;;;;;11.93;91.42;99941.88;126848;1279;107497;-79
2022/10/24 06:42:24;;;;;;;18.40;12.90;;;;;;;11.99;91.45;99944.27;126882;1280;107497;-80
2022/10/24 06:45:29;;;;;;;18.00;13.70;;;;;;;12.06;91.36;99939.58;126997;1286;107480;-79
2022/10/24 06:48:34;;;;;;;18.90;13.70;;;;;;;12.11;91.48;99942.77;127059;1279;107506;-79
2022/10/24 06:51:40;;;;;;;16.00;11.80;;;;;;;12.12;91.47;99945.77;127151;1278;107621;-78
2022/10/24 06:54:45;;;;;;;16.10;11.90;;;;;;;12.17;91.43;99936.91;126971;1286;106231;-80
2022/10/24 06:57:52;;;;;;;15.10;12.20;;;;;;;12.24;91.53;99943.24;126912;1286;107527;-79
2022/10/24 07:00:57;;;;;;;15.80;12.80;;;;;;;12.32;91.30;99947.33;126889;1280;107395;-79
2022/10/24 07:04:04;;;;;;;17.80;13.80;;;;;;;12.40;91.21;99950.95;126941;1280;107380;-79
2022/10/24 07:07:16;;;;;;;19.60;14.00;;;;;;;12.47;91.30;99946.55;126924;1280;107496;-79
2022/10/24 07:10:21;;;;;;;17.60;12.30;;;;;;;12.50;91.27;99951.71;126923;1280;107496;-79
2022/10/24 07:13:26;;;;;;;14.50;10.80;;;;;;;12.55;91.20;99953.06;126860;1286;107502;-79
2022/10/24 07:16:32;;;;;;;17.50;12.70;;;;;;;12.62;91.30;99949.73;126922;1279;107533;-79
2022/10/24 07:19:37;;;;;;;17.50;12.90;;;;;;;12.68;91.16;99948.63;126807;1278;106788;-79
2022/10/24 07:22:44;;;;;;;19.90;14.50;;;;;;;12.75;91.13;99951.25;126935;1285;106713;-79
2022/10/24 07:25:51;;;;;;;17.00;12.90;;;;;;;12.82;91.02;99951.22;126888;1278;107606;-78
2022/10/24 07:28:59;;;;;;;17.30;11.60;;;;;;;12.84;91.00;99949.86;126929;1279;107324;-78
2022/10/24 07:32:05;;;;;;;16.10;11.80;;;;;;;12.89;91.18;99947.15;127018;1275;107370;-78
2022/10/24 07:35:12;;;;;;;15.40;11.90;;;;;;;12.96;91.14;99944.08;126915;1287;105918;-78
2022/10/24 07:38:18;;;;;;;15.30;11.90;;;;;;;13.05;91.04;99944.27;126883;1279;107571;-78
2022/10/24 07:41:24;;;;;;;15.80;11.90;;;;;;;13.14;90.98;99948.09;126871;1279;106564;-78
2022/10/24 07:44:29;;;;;;;19.70;12.70;;;;;;;13.23;90.83;99950.27;127072;1282;107440;-78
2022/10/24 07:47:35;;;;;;;17.20;11.30;;;;;;;13.29;91.00;99959.74;126853;1284;107516;-77
2022/10/24 07:50:45;;;;;;;13.40;10.70;;;;;;;13.37;90.88;99955.30;126842;1279;107502;-77
2022/10/24 07:53:50;;;;;;;16.50;11.60;;;;;;;13.46;90.82;99956.94;126810;1285;107542;-78
2022/10/24 07:56:56;;;;;;;17.10;11.80;;;;;;;13.56;90.80;99955.35;126916;1279;107254;-77
2022/10/24 08:00:01;;;;;;;16.40;12.10;;;;;;;13.66;90.62;99954.73;126836;1279;107492;-77
2022/10/24 08:03:06;;;;;;;16.40;12.80;;;;;;;13.72;90.49;99957.27;126942;1286;107028;-77
2022/10/24 08:06:14;;;;;;;17.70;11.30;;;;;;;13.77;90.56;99958.46;126795;1296;107348;-77
2022/10/24 08:09:20;;;;;;;13.90;10.90;;;;;;;13.82;90.50;99958.58;126959;1285;107510;-78
2022/10/24 08:12:25;;;;;;;15.00;11.50;;;;;;;13.92;90.62;99963.99;126907;1286;107420;-78
2022/10/24 08:15:31;;;;;;;16.30;11.60;;;;;;;14.01;90.19;99958.41;126892;1291;107290;-77
2022/10/24 08:18:37;;;;;;;15.50;12.00;;;;;;;14.09;90.11;99957.16;126911;1279;107661;-78
2022/10/24 08:21:43;;;;;;;15.90;11.80;;;;;;;14.19;90.19;99958.67;126984;1275;107645;-80
2022/10/24 08:24:48;;;;;;;12.80;10.30;;;;;;;14.25;89.90;99958.86;127040;1285;107188;-79
2022/10/24 08:27:53;;;;;;;13.70;10.10;;;;;;;14.31;90.06;99946.16;126862;1285;107394;-78
2022/10/24 08:31:01;;;;;;;15.10;11.00;;;;;;;14.42;89.82;99938.89;126907;1284;107392;-78
2022/10/24 08:34:06;;;;;;;16.00;11.00;;;;;;;14.54;90.05;99929.20;126970;1279;107499;-78
2022/10/24 08:37:12;;;;;;;17.20;11.90;;;;;;;14.67;89.66;99925.89;126874;1285;107545;-79
2022/10/24 08:40:20;;;;;;;15.20;11.80;;;;;;;14.79;89.70;99926.57;126884;1284;107595;-78
2022/10/24 08:43:26;;;;;;;14.80;11.30;;;;;;;14.86;89.55;99924.38;126938;1284;107511;-78
2022/10/24 08:46:55;;;;;;;14.00;10.60;;;;;;;14.93;89.51;99925.66;126907;1283;107384;-78
2022/10/24 08:50:06;;;;;;;13.30;10.40;;;;;;;15.03;89.15;99926.59;126905;1283;107401;-78
2022/10/24 08:53:18;;;;;;;12.70;10.40;;;;;;;15.13;89.19;99925.23;126902;1284;107352;-78
2022/10/24 08:56:24;;;;;;;;;;;;;;;15.24;89.08;99923.09;126891;1292;107138;-78
2022/10/24 08:59:33;;;;;;;13.90;9.80;;;;;;;15.35;88.82;99927.48;126997;1286;108044;-78
2022/10/24 09:02:43;;;;;;;12.80;10.30;;;;;;;15.46;88.82;99926.44;126894;1279;107370;-80
2022/10/24 09:05:51;;;;;;;12.30;10.00;;;;;;;15.55;88.58;99935.21;126936;1284;107371;-78
2022/10/24 09:08:59;;;;;;;13.50;9.60;;;;;;;15.60;88.39;99928.16;126995;1284;107722;-78
2022/10/24 09:12:11;;;;;;;11.50;8.30;;;;;;;15.61;88.32;99916.31;127015;1290;107664;-78
2022/10/24 09:15:22;;;;;;;11.40;8.90;;;;;;;15.65;88.42;99916.71;127105;1284;107281;-78
2022/10/24 09:18:32;;;;;;;13.50;9.50;;;;;;;15.71;88.27;99910.60;127100;1284;107461;-78
2022/10/24 09:21:40;;;;;;;12.20;9.60;;;;;;;15.77;88.11;99919.98;127112;1278;107635;-78
2022/10/24 09:24:51;;;;;;;11.10;9.40;;;;;;;15.78;87.97;99925.95;127007;1279;107433;-79
2022/10/24 09:28:01;;;;;;;12.50;9.80;;;;;;;15.80;87.87;99923.81;127133;1279;107334;-78
2022/10/24 09:31:16;;;;;;;12.10;8.90;;;;;;;15.81;87.71;99928.38;127074;1278;107467;-78
2022/10/24 09:34:21;;;;;;;11.60;8.20;;;;;;;15.81;87.90;99935.16;126920;1278;107495;-78
2022/10/24 09:37:37;;;;;;;13.90;8.50;;;;;;;15.86;87.71;99939.42;126958;1279;107375;-78
2022/10/24 09:40:49;;;;;;;11.70;9.00;;;;;;;15.93;87.66;99944.80;127049;1278;107504;-80
2022/10/24 09:43:55;;;;;;;;;;;;;;;15.99;87.45;99944.73;126878;1284;108102;-77
2022/10/24 09:47:01;;;;;;;14.20;9.60;;;;;;;16.05;87.34;99943.11;126944;1285;106514;-77
2022/10/24 09:50:18;;;;;;;11.60;9.30;;;;;;;16.06;87.35;99946.30;126990;1280;107260;-77
2022/10/24 09:53:27;;;;;;;12.50;10.40;;;;;;;16.08;87.20;99945.67;126911;1285;107494;-77
2022/10/24 09:56:39;;;;;;;12.80;10.00;;;;;;;16.09;87.11;99939.00;126878;1290;107324;-78
2022/10/24 09:59:46;;;;;;;12.20;9.70;;;;;;;16.10;87.08;99939.17;126903;1284;108046;-78
2022/10/24 10:03:04;;;;;;;13.00;9.90;;;;;;;16.16;86.95;99938.13;126830;1286;107512;-78
2022/10/24 10:06:19;;;;;;;13.80;10.60;;;;;;;16.23;86.95;99936.11;126958;1280;107501;-78
2022/10/24 10:09:30;;;;;;;13.30;10.10;;;;;;;16.31;86.80;99934.17;126914;1280;107216;-77
2022/10/24 10:12:37;;;;;;;12.70;10.30;;;;;;;16.38;86.57;99926.14;126931;1278;107492;-78
2022/10/24 10:15:47;;;;;;;15.00;10.70;;;;;;;16.40;86.51;99922.55;126830;1279;107297;-79
2022/10/24 10:19:01;;;;;;;12.60;10.80;;;;;;;16.40;86.30;99928.55;126904;1279;107131;-78
2022/10/24 10:22:24;;;;;;;12.90;9.00;;;;;;;16.38;86.42;99920.33;126885;1290;107348;-78
2022/10/24 10:25:32;;;;;;;11.90;8.90;;;;;;;16.41;86.44;99918.61;126929;1286;107513;-78
2022/10/24 10:28:47;;;;;;;10.00;7.80;;;;;;;16.44;86.36;99919.95;126878;1280;107401;-78
2022/10/24 10:32:00;;;;;;;11.50;8.90;;;;;;;16.50;86.18;99927.92;127225;1278;107414;-78
2022/10/24 10:35:13;;;;;;;11.20;8.80;;;;;;;16.57;86.09;99930.29;126915;1278;107348;-78
2022/10/24 10:38:43;;;;;;;10.40;8.40;;;;;;;16.62;85.85;99938.51;126750;1285;209249;-78
2022/10/24 10:41:54;;;;;;;12.80;9.00;;;;;;;16.65;85.89;99942.51;126993;1280;108053;-78
2022/10/24 10:45:11;;;;;;;11.90;9.10;;;;;;;16.70;85.78;99935.56;126818;1279;107500;-78
2022/10/24 10:48:34;;;;;;;11.00;8.70;;;;;;;16.74;85.68;99931.27;126878;1283;107206;-78
2022/10/24 10:51:47;;;;;;;9.30;7.50;;;;;;;16.78;85.62;99931.28;126955;1295;107559;-78
2022/10/24 10:55:06;;;;;;;9.20;7.60;;;;;;;16.84;85.69;99932.69;127076;1276;107375;-78
2022/10/24 10:58:25;;;;;;;10.70;8.20;;;;;;;16.93;85.59;99943.14;127011;1285;107061;-78
2022/10/24 11:01:41;;;;;;;11.20;9.70;;;;;;;17.01;85.52;99943.95;126895;1285;107318;-77
2022/10/24 11:04:54;;;;;;;13.40;9.60;;;;;;;17.06;85.36;99946.50;126849;1286;107415;-79
2022/10/24 11:08:10;;;;;;;12.70;9.00;;;;;;;17.09;85.07;99942.69;126834;1280;107451;-78
2022/10/24 11:11:21;;;;;;;12.70;9.30;;;;;;;17.14;85.22;99939.05;126893;1286;107437;-77
2022/10/24 11:14:33;;;;;;;11.80;9.40;;;;;;;17.22;85.03;99936.34;126923;1282;107375;-77
2022/10/24 11:17:45;;;;;;;10.10;8.30;;;;;;;17.30;84.89;99930.42;126916;1280;107378;-77
2022/10/24 11:20:57;;;;;;;12.10;7.90;;;;;;;17.39;84.70;99929.44;126928;1279;107503;-78
2022/10/24 11:24:07;;;;;;;12.40;8.50;;;;;;;17.51;84.69;99930.90;126919;1280;107314;-78
2022/10/24 11:27:20;;;;;;;10.60;8.50;;;;;;;17.61;84.54;99924.97;126897;1278;107466;-79
2022/10/24 11:30:43;;;;;;;10.40;8.20;;;;;;;17.71;84.29;99924.80;126886;1280;107387;-78
2022/10/24 11:33:55;;;;;;;9.60;7.70;;;;;;;17.76;84.14;99918.81;126921;1296;108543;-78
2022/10/24 11:37:06;;;;;;;11.00;7.80;;;;;;;17.77;84.15;99924.47;126919;1285;107513;-78
2022/10/24 11:40:15;;;;;;;9.30;7.40;;;;;;;17.74;83.96;99921.10;126884;1279;107585;-78
2022/10/24 11:43:25;;;;;;;8.80;7.00;;;;;;;17.67;83.78;99912.46;126853;1294;107302;-77
2022/10/24 11:46:36;;;;;;;7.40;6.20;;;;;;;17.62;83.74;99909.73;126860;1279;107355;-78
2022/10/24 11:49:47;;;;;;;7.00;5.80;;;;;;;17.64;83.78;99905.66;126880;1279;107415;-77
2022/10/24 11:52:55;;;;;;;6.80;5.80;;;;;;;17.70;83.72;99908.52;126833;1279;107257;-77
2022/10/24 11:56:10;;;;;;;6.20;5.50;;;;;;;17.72;83.31;99907.56;126984;1296;106641;-77
2022/10/24 11:59:22;;;;;;;8.70;5.20;;;;;;;17.71;83.14;99910.31;126922;1279;107505;-77
2022/10/24 12:02:49;;;;;;;;;;;;;;;17.70;83.04;99905.08;126897;1279;107245;-77
2022/10/24 12:06:10;;;;;;;6.80;5.40;;;;;;;17.68;82.84;99896.90;126860;1280;107606;-77
2022/10/24 12:09:42;;;;;;;6.40;5.40;;;;;;;17.64;83.05;99895.45;126950;1279;108561;-77
2022/10/24 12:13:06;;;;;;;7.80;5.00;;;;;;;17.59;83.02;99892.51;126916;1278;107409;-78
2022/10/24 12:16:19;;;;;;;8.20;4.80;;;;;;;17.55;82.73;99891.23;126943;1279;107410;-77
2022/10/24 12:19:26;;;;;;;6.30;5.00;;;;;;;17.54;82.76;99886.33;127069;1285;107322;-77
2022/10/24 12:22:37;;;;;;;6.80;5.10;;;;;;;17.56;82.52;99881.40;127230;1285;107499;-80
2022/10/24 12:25:43;;;;;;;6.70;5.20;;;;;;;17.58;82.38;99875.58;127399;1278;107504;-79
2022/10/24 12:28:57;;;;;;;7.70;5.10;;;;;;;17.59;82.22;99861.38;127607;1278;107466;-79
2022/10/24 12:32:33;;;;;;;7.80;4.80;;;;;;;17.60;82.06;99857.68;127175;1278;107496;-78
2022/10/24 12:35:56;;;;;;;7.60;4.50;;;;;;;17.59;82.02;99861.17;127051;1284;107316;-78
2022/10/24 12:39:05;;;;;;;5.40;4.20;;;;;;;17.62;82.23;99851.49;127169;1279;106381;-79
2022/10/24 12:42:36;;;;;;;7.30;4.30;;;;;;;17.65;82.15;99844.19;127118;1279;107507;-79
2022/10/24 12:45:42;;;;;;;6.70;4.90;;;;;;;17.71;82.11;99846.38;127085;1279;108785;-79
2022/10/24 12:49:17;;;;;;;5.60;4.20;;;;;;;17.72;81.96;99846.50;127119;1278;107580;-79
2022/10/24 12:53:05;;;;;;;5.70;3.80;;;;;;;17.75;81.85;99849.23;127365;1278;107278;-78
2022/10/24 12:56:21;;;;;;;6.80;4.00;;;;;;;17.71;81.54;99840.56;127220;1279;107645;-79
2022/10/24 12:59:29;;;;;;;6.20;4.10;;;;;;;17.66;81.71;99841.40;126975;1278;107646;-77
2022/10/24 13:03:02;;;;;;;6.60;4.20;;;;;;;17.63;81.49;99837.46;126941;1279;107612;-79
2022/10/24 13:06:22;;;;;;;5.30;4.20;;;;;;;17.63;81.48;99839.21;126949;1278;108168;-79
2022/10/24 13:09:42;;;;;;;6.00;4.30;;;;;;;17.66;81.38;99840.50;127003;1279;107341;-80
2022/10/24 13:13:11;;;;;;;6.50;4.00;;;;;;;17.66;81.39;99839.20;126939;1279;107644;-80
2022/10/24 13:16:28;;;;;;;7.20;4.30;;;;;;;17.62;81.20;99836.39;126849;1288;107426;-79
2022/10/24 13:19:34;;;;;;;8.20;4.40;;;;;;;17.57;81.27;99837.77;126851;1279;107513;-78
2022/10/24 13:22:41;;;;;;;11.40;5.80;;;;;;;17.55;81.29;99840.59;126900;1286;107442;-78
2022/10/24 13:25:48;;;;;;;8.00;4.80;;;;;;;17.56;81.18;99842.90;127001;1271;106451;-80
2022/10/24 13:28:53;;;;;;;7.20;4.30;;;;;;;17.57;81.17;99847.06;126887;1286;108191;-79
2022/10/24 13:32:24;;;;;;;6.20;4.30;;;;;;;17.59;81.38;99855.33;126878;1294;107029;-78
2022/10/24 13:35:32;;;;;;;5.80;4.00;;;;;;;17.60;81.22;99850.34;126922;1286;107383;-79
2022/10/24 13:38:45;;;;;;;7.20;5.30;;;;;;;17.59;81.27;99851.30;127023;1279;107528;-80
2022/10/24 13:41:58;;;;;;;6.10;3.50;;;;;;;17.58;81.25;99848.89;127014;1279;107378;-78
2022/10/24 13:45:06;;;;;;;6.70;3.60;;;;;;;17.59;81.09;99848.47;127104;1286;107481;-78
2022/10/24 13:48:17;;;;;;;6.10;3.80;;;;;;;17.63;81.02;99844.31;127146;1285;107497;-78
2022/10/24 13:51:28;;;;;;;5.50;3.90;;;;;;;17.69;81.14;99843.77;127234;1272;107570;-78
2022/10/24 13:54:36;;;;;;;8.70;3.90;;;;;;;17.73;81.09;99840.16;127198;1278;107291;-78
2022/10/24 13:57:52;;;;;;;8.00;4.00;;;;;;;17.76;81.02;99842.96;127306;1278;107440;-80
2022/10/24 14:01:00;;;;;;;6.30;4.10;;;;;;;17.74;80.89;99845.39;127134;1278;108388;-81
2022/10/24 14:04:09;;;;;;;5.50;3.80;;;;;;;17.68;80.88;99839.16;127099;1278;107387;-80
2022/10/24 14:07:20;;;;;;;6.30;3.80;;;;;;;17.59;80.91;99845.61;127014;1286;107380;-79
2022/10/24 14:10:26;;;;;;;8.10;4.10;;;;;;;17.50;81.03;99848.27;127085;1278;107310;-78
2022/10/24 14:13:34;;;;;;;5.40;3.70;;;;;;;17.43;81.13;99857.60;127004;1279;107567;-80
2022/10/24 14:16:39;;;;;;;6.00;3.90;;;;;;;17.39;81.15;99858.52;127056;1278;107373;-78